Accueil
METAR-TAF:

METAR-TAF

Aéroports :

Base aérienne 107 Villacoublay

Villacoublay, France

latitude: 48-46N, longitude: 002-12E, altitude: 177 m

Observation

Le bulletin a été fait il y a 16 minutes, à 19:00 UTC
Vent 5 kt de nord/nord-ouest, variant entre nord-ouest et nord/nord-est
Température 26°C
Humidité 51%
Pression 1019 hPa
Visibilité 10 km ou plus
pas de nuages en-dessous de 1500 mètres et pas de cumulonimbus.

METAR: LFPV 201900Z AUTO 34005KT 310V020 CAVOK 26/15 Q1019 NOSIG

Heure: 21:16 (19:16 UTC)

Prévision

Le bulletin a été fait il y a 5 heures et 16 minutes, à 14:00 UTC
Prévision valable du 20 à 15 UTC au 21 à 15 UTC
Vent 2 kt de sud-ouest
Visibilité 10 km ou plus
pas de nuages en-dessous de 1500 mètres et pas de cumulonimbus.
Probabilité 30% :
Temporairement
du 21 à 04 UTC au 21 à 07 UTC
Nuages fragmentés à une hauteur de 400 ft

TAF: LFPV 201400Z 2015/2115 22002KT CAVOK PROB30 TEMPO 2104/2107 BKN004

Observations et prévisions météorologiques de plus de 4000 aéroports (messages METAR et TAF).

Les stations disponibles sont représentées par des disques jaunes et rouges sur la carte.

Passer la souris dessus pour voir le nom de la station.

Cliquer dessus pour voir les observations et prévisions météorologiques.

Pour changer de carte: cliquez sur les boutons verts avec une croix noire pour zoomer, sur le bouton vert avec un tiret pour effectuer un zoom arrière, ou sur les flèches vertes pour les cartes adjacentes.


METAR-TAF: